createdAt,value
2022-12-27T00:00:28.913Z,3.51
2022-12-27T00:01:00.365Z,3.48
2022-12-27T00:01:32.053Z,3.53
2022-12-27T00:02:04.051Z,3.53
2022-12-27T00:02:38.397Z,3.54
2022-12-27T00:03:09.859Z,3.53
2022-12-27T00:03:41.886Z,3.54
2022-12-27T00:04:13.314Z,3.55
2022-12-27T00:04:44.757Z,3.53
2022-12-27T00:05:17.314Z,3.56
2022-12-27T00:05:48.753Z,3.55
2022-12-27T00:06:24.175Z,3.56
2022-12-27T00:06:55.930Z,3.56
2022-12-27T00:07:27.249Z,3.57
2022-12-27T00:07:58.623Z,3.53
2022-12-27T00:08:30.026Z,3.53
2022-12-27T00:09:02.471Z,3.58
2022-12-27T00:09:34.269Z,3.58
2022-12-27T00:10:07.448Z,3.58
2022-12-27T00:10:38.958Z,3.57
2022-12-27T00:11:19.605Z,3.58
2022-12-27T00:11:56.361Z,3.58
2022-12-27T00:12:31.301Z,3.59
2022-12-27T00:13:02.717Z,3.60
2022-12-27T00:13:34.145Z,3.58
2022-12-27T00:14:07.082Z,3.58
2022-12-27T00:14:38.525Z,3.58
2022-12-27T00:15:10.564Z,3.59
2022-12-27T00:15:42.155Z,3.58
2022-12-27T00:16:16.084Z,3.59
2022-12-27T00:16:47.573Z,3.59
2022-12-27T00:17:19.044Z,3.58
2022-12-27T00:17:51.007Z,3.59
2022-12-27T00:18:22.452Z,3.59
2022-12-27T00:18:54.048Z,3.57
2022-12-27T00:19:25.369Z,3.58
2022-12-27T00:19:56.749Z,3.57
2022-12-27T00:20:28.125Z,3.54
2022-12-27T00:21:01.100Z,3.55
2022-12-27T00:21:32.596Z,3.55
2022-12-27T00:22:05.244Z,3.54
2022-12-27T00:22:36.756Z,3.57
2022-12-27T00:23:08.163Z,3.55
2022-12-27T00:23:42.539Z,3.58
2022-12-27T00:24:13.934Z,3.55
2022-12-27T00:24:45.479Z,3.54
2022-12-27T00:25:17.102Z,3.56
2022-12-27T00:25:48.651Z,3.57
2022-12-27T00:26:26.471Z,3.55
2022-12-27T00:26:57.894Z,3.56
2022-12-27T00:27:29.332Z,3.58
2022-12-27T00:28:00.727Z,3.54
2022-12-27T00:28:33.612Z,3.55
2022-12-27T00:29:05.175Z,3.53
2022-12-27T00:29:36.553Z,3.55
2022-12-27T00:30:08.935Z,3.52
2022-12-27T00:30:40.308Z,3.51
2022-12-27T00:32:01.418Z,3.55
2022-12-27T00:32:33.297Z,3.54
2022-12-27T00:33:04.698Z,3.55
2022-12-27T00:33:37.868Z,3.53
2022-12-27T00:34:09.392Z,3.54
2022-12-27T00:34:40.857Z,3.56
2022-12-27T00:35:12.350Z,3.54
2022-12-27T00:35:43.742Z,3.52
2022-12-27T00:36:19.070Z,3.56
2022-12-27T00:36:50.450Z,3.53
2022-12-27T00:37:21.931Z,3.54
2022-12-27T00:37:53.451Z,3.53
2022-12-27T00:38:24.831Z,3.52
2022-12-27T00:38:58.160Z,3.51
2022-12-27T00:39:29.651Z,3.51
2022-12-27T00:40:01.142Z,3.51
2022-12-27T00:40:32.690Z,3.50
2022-12-27T00:41:04.980Z,3.47
2022-12-27T00:41:36.348Z,3.50
2022-12-27T00:42:07.803Z,3.48
2022-12-27T00:42:39.403Z,3.45
2022-12-27T00:43:10.781Z,3.48
2022-12-27T00:43:42.734Z,3.48
2022-12-27T00:44:14.271Z,3.51
2022-12-27T00:44:45.675Z,3.50
2022-12-27T00:45:17.143Z,3.51
2022-12-27T00:45:48.639Z,3.53
2022-12-27T00:46:20.133Z,3.52
2022-12-27T00:46:51.570Z,3.53
2022-12-27T00:47:22.980Z,3.54
2022-12-27T00:47:54.420Z,3.53
2022-12-27T00:48:25.782Z,3.56
2022-12-27T00:48:58.718Z,3.57
2022-12-27T00:49:30.387Z,3.57
2022-12-27T00:50:01.929Z,3.58
2022-12-27T00:50:33.283Z,3.57
2022-12-27T00:51:07.881Z,3.57
2022-12-27T00:51:39.234Z,3.56
2022-12-27T00:52:10.698Z,3.57
2022-12-27T00:52:42.076Z,3.58
2022-12-27T00:53:13.799Z,3.56
2022-12-27T00:53:46.385Z,3.56
2022-12-27T00:54:18.085Z,3.56
2022-12-27T00:54:49.523Z,3.56
2022-12-27T00:55:21.233Z,3.56
2022-12-27T00:55:52.622Z,3.56
2022-12-27T00:56:27.776Z,3.54
2022-12-27T00:56:59.195Z,3.54
2022-12-27T00:57:30.590Z,3.54
2022-12-27T00:58:02.253Z,3.52
2022-12-27T00:58:38.390Z,3.51
2022-12-27T00:59:12.259Z,3.48
2022-12-27T00:59:43.635Z,3.47
2022-12-27T01:00:15.707Z,3.46
2022-12-27T01:00:47.871Z,3.48
2022-12-27T01:01:21.239Z,3.51
2022-12-27T01:01:53.206Z,3.48
2022-12-27T01:02:26.203Z,3.50
2022-12-27T01:02:57.626Z,3.52
2022-12-27T01:03:29.079Z,3.53
2022-12-27T01:04:00.865Z,3.53
2022-12-27T01:04:33.528Z,3.50
2022-12-27T01:05:05.956Z,3.53
2022-12-27T01:05:37.795Z,3.53
2022-12-27T01:06:11.822Z,3.54
2022-12-27T01:06:43.327Z,3.53
2022-12-27T01:07:14.747Z,3.51
2022-12-27T01:07:46.097Z,3.52
2022-12-27T01:08:17.434Z,3.53
2022-12-27T01:08:49.515Z,3.52
2022-12-27T01:09:21.150Z,3.52
2022-12-27T01:09:52.529Z,3.55
2022-12-27T01:10:23.889Z,3.55
2022-12-27T01:10:55.339Z,3.53
2022-12-27T01:11:28.440Z,3.55
2022-12-27T01:11:59.790Z,3.54
2022-12-27T01:12:31.141Z,3.55
2022-12-27T01:13:04.155Z,3.56
2022-12-27T01:13:35.950Z,3.55
2022-12-27T01:14:07.516Z,3.56
2022-12-27T01:14:38.930Z,3.53
2022-12-27T01:15:11.001Z,3.54
2022-12-27T01:15:42.551Z,3.58
2022-12-27T01:16:15.692Z,3.59
2022-12-27T01:16:47.351Z,3.57
2022-12-27T01:17:18.850Z,3.60
2022-12-27T01:17:50.220Z,3.60
2022-12-27T01:18:22.021Z,3.62
2022-12-27T01:18:54.546Z,3.58
2022-12-27T01:19:25.952Z,3.62
2022-12-27T01:19:57.310Z,3.62
2022-12-27T01:20:28.935Z,3.63
2022-12-27T01:21:05.195Z,3.62
2022-12-27T01:21:36.629Z,3.63
2022-12-27T01:22:08.155Z,3.65
2022-12-27T01:22:39.504Z,3.66
2022-12-27T01:23:10.830Z,3.66
2022-12-27T01:23:42.551Z,3.66
2022-12-27T01:24:13.910Z,3.67
2022-12-27T01:24:45.347Z,3.67
2022-12-27T01:25:16.879Z,3.68
2022-12-27T01:25:48.315Z,3.67
2022-12-27T01:26:22.023Z,3.68
2022-12-27T01:26:53.420Z,3.68
2022-12-27T01:27:24.845Z,3.66
2022-12-27T01:27:56.523Z,3.68
2022-12-27T01:28:27.874Z,3.68
2022-12-27T01:28:59.259Z,3.65
2022-12-27T01:29:30.792Z,3.67
2022-12-27T01:30:03.276Z,3.67
2022-12-27T01:30:34.760Z,3.67
2022-12-27T01:31:08.181Z,3.70
2022-12-27T01:31:39.905Z,3.68
2022-12-27T01:32:11.372Z,3.68
2022-12-27T01:32:42.710Z,3.70
2022-12-27T01:33:14.228Z,3.70
2022-12-27T01:33:45.961Z,3.70
2022-12-27T01:34:17.965Z,3.70
2022-12-27T01:34:51.080Z,3.70
2022-12-27T01:35:22.668Z,3.69
2022-12-27T01:35:54.192Z,3.70
2022-12-27T01:36:27.094Z,3.70
2022-12-27T01:36:58.449Z,3.70
2022-12-27T01:37:30.337Z,3.70
2022-12-27T01:38:01.729Z,3.68
2022-12-27T01:38:33.122Z,3.70
2022-12-27T01:39:04.582Z,3.70
2022-12-27T01:39:35.960Z,3.71
2022-12-27T01:40:08.312Z,3.72
2022-12-27T01:40:39.709Z,3.72
2022-12-27T01:41:36.989Z,3.73
2022-12-27T01:42:37.684Z,3.75
2022-12-27T01:43:18.289Z,3.75
2022-12-27T01:43:49.730Z,3.75
2022-12-27T01:44:39.305Z,3.75
2022-12-27T01:45:20.768Z,3.75
2022-12-27T01:45:52.388Z,3.73
2022-12-27T01:46:23.954Z,3.76
2022-12-27T01:46:55.446Z,3.76
2022-12-27T01:47:44.711Z,3.78
2022-12-27T01:48:24.199Z,3.79
2022-12-27T01:48:56.001Z,3.80
2022-12-27T01:49:28.039Z,3.79
2022-12-27T01:50:05.243Z,3.80
2022-12-27T01:50:51.450Z,3.82
2022-12-27T01:51:23.033Z,3.80
2022-12-27T01:51:54.439Z,3.81
2022-12-27T01:52:34.922Z,3.81
2022-12-27T01:53:17.414Z,3.83
2022-12-27T01:53:51.174Z,3.82
2022-12-27T01:54:23.569Z,3.83
2022-12-27T01:55:00.376Z,3.81
2022-12-27T01:55:44.042Z,3.81
2022-12-27T01:56:25.189Z,3.81
2022-12-27T01:56:57.901Z,3.79
2022-12-27T01:57:29.485Z,3.80
2022-12-27T01:58:11.596Z,3.80
2022-12-27T01:58:52.666Z,3.81
2022-12-27T01:59:25.559Z,3.82
2022-12-27T01:59:56.933Z,3.80
2022-12-27T02:00:28.672Z,3.81
2022-12-27T02:01:00.039Z,3.82
2022-12-27T02:01:43.413Z,3.81
2022-12-27T02:02:15.145Z,3.81
2022-12-27T02:02:46.928Z,3.81
2022-12-27T02:03:24.638Z,3.81
2022-12-27T02:04:00.879Z,3.80
2022-12-27T02:04:33.274Z,3.81
2022-12-27T02:05:05.230Z,3.82
2022-12-27T02:05:41.615Z,3.81
2022-12-27T02:06:14.364Z,3.83
2022-12-27T02:06:46.948Z,3.80
2022-12-27T02:07:26.080Z,3.81
2022-12-27T02:08:20.172Z,3.84
2022-12-27T02:08:54.430Z,3.84
2022-12-27T02:09:41.083Z,3.83
2022-12-27T02:10:12.589Z,3.84
2022-12-27T02:10:44.560Z,3.84
2022-12-27T02:11:17.759Z,3.82
2022-12-27T02:11:55.488Z,3.85
2022-12-27T02:12:27.281Z,3.83
2022-12-27T02:12:59.867Z,3.83
2022-12-27T02:13:34.567Z,3.85
2022-12-27T02:14:07.447Z,3.85
2022-12-27T02:14:44.928Z,3.85
2022-12-27T02:15:16.382Z,3.87
2022-12-27T02:15:47.851Z,3.85
2022-12-27T02:16:19.890Z,3.87
2022-12-27T02:16:53.026Z,3.87
2022-12-27T02:17:28.465Z,3.85
2022-12-27T02:18:00.704Z,3.86
2022-12-27T02:18:32.151Z,3.86
2022-12-27T02:19:08.737Z,3.85
2022-12-27T02:19:40.119Z,3.87
2022-12-27T02:20:17.667Z,3.86
2022-12-27T02:20:58.067Z,3.86
2022-12-27T02:21:46.522Z,3.86
2022-12-27T02:23:08.689Z,3.84
2022-12-27T02:24:05.263Z,3.84
2022-12-27T02:24:57.983Z,3.83
2022-12-27T02:25:51.126Z,3.83
2022-12-27T02:26:45.892Z,3.83
2022-12-27T02:27:37.789Z,3.83
2022-12-27T02:28:46.487Z,3.85
2022-12-27T02:29:29.853Z,3.83
2022-12-27T02:30:10.074Z,3.81
2022-12-27T02:30:44.376Z,3.81
2022-12-27T02:31:35.076Z,3.82
2022-12-27T02:32:16.822Z,3.80
2022-12-27T02:33:13.874Z,3.79
2022-12-27T02:33:48.750Z,3.80
2022-12-27T02:34:26.274Z,3.79
2022-12-27T02:35:19.359Z,3.81
2022-12-27T02:35:58.058Z,3.81
2022-12-27T02:36:33.505Z,3.80
2022-12-27T02:37:09.939Z,3.79
2022-12-27T02:38:06.105Z,3.82
2022-12-27T02:39:35.910Z,3.83
2022-12-27T02:40:28.492Z,3.84
2022-12-27T02:41:21.297Z,3.82
2022-12-27T02:42:13.335Z,3.85
2022-12-27T02:43:04.657Z,3.84
2022-12-27T02:43:54.489Z,3.83
2022-12-27T02:44:44.676Z,3.83
2022-12-27T02:45:42.377Z,3.82
2022-12-27T02:47:55.690Z,3.83
2022-12-27T02:48:45.861Z,3.82
2022-12-27T02:49:54.371Z,3.80
2022-12-27T02:50:52.411Z,3.80
2022-12-27T02:52:04.691Z,3.80
2022-12-27T02:53:09.533Z,3.79
2022-12-27T02:54:02.464Z,3.79
2022-12-27T02:55:01.924Z,3.79
2022-12-27T02:56:09.072Z,3.79
2022-12-27T02:57:09.759Z,3.80
2022-12-27T02:57:52.684Z,3.78
2022-12-27T02:58:39.802Z,3.79
2022-12-27T03:00:20.179Z,3.81
2022-12-27T03:01:49.153Z,3.82
2022-12-27T03:02:53.654Z,3.81
2022-12-27T03:03:51.239Z,3.82
2022-12-27T03:04:46.693Z,3.80
2022-12-27T03:05:41.717Z,3.81
2022-12-27T03:06:40.189Z,3.79
2022-12-27T03:07:26.287Z,3.77
2022-12-27T03:10:00.196Z,3.78
2022-12-27T03:11:07.686Z,3.77
2022-12-27T03:12:06.696Z,3.77
2022-12-27T03:13:14.080Z,3.78
2022-12-27T03:14:35.824Z,3.77
2022-12-27T03:15:42.941Z,3.76
2022-12-27T03:16:18.940Z,3.76
2022-12-27T03:16:57.410Z,3.75
2022-12-27T03:17:43.765Z,3.73
2022-12-27T03:18:25.849Z,3.74
2022-12-27T03:19:09.262Z,3.75
2022-12-27T03:20:03.979Z,3.75
2022-12-27T03:20:57.564Z,3.74
2022-12-27T03:21:55.376Z,3.74
2022-12-27T03:22:48.926Z,3.73
2022-12-27T03:23:49.955Z,3.73
2022-12-27T03:25:01.631Z,3.72
2022-12-27T03:25:36.017Z,3.72
2022-12-27T03:26:09.619Z,3.72
2022-12-27T03:26:48.839Z,3.72
2022-12-27T03:28:40.347Z,3.72
2022-12-27T03:29:33.578Z,3.70
2022-12-27T03:30:27.086Z,3.70
2022-12-27T03:31:29.453Z,3.71
2022-12-27T03:32:24.695Z,3.71
2022-12-27T03:33:14.353Z,3.69
2022-12-27T03:33:49.167Z,3.69
2022-12-27T03:34:39.878Z,3.68
2022-12-27T03:35:19.814Z,3.69
2022-12-27T03:36:30.749Z,3.68
2022-12-27T03:37:26.392Z,3.70
2022-12-27T03:38:05.689Z,3.68
2022-12-27T03:38:47.484Z,3.68
2022-12-27T03:39:43.078Z,3.70
2022-12-27T03:40:30.799Z,3.68
2022-12-27T03:41:24.944Z,3.68
2022-12-27T03:42:23.893Z,3.69
2022-12-27T03:43:10.805Z,3.68
2022-12-27T03:43:42.587Z,3.67
2022-12-27T03:44:26.171Z,3.68
2022-12-27T03:44:57.783Z,3.66
2022-12-27T03:46:00.275Z,3.67
2022-12-27T03:46:34.789Z,3.67
2022-12-27T03:47:38.532Z,3.67
2022-12-27T03:48:13.919Z,3.66
2022-12-27T03:48:57.329Z,3.67
2022-12-27T03:49:41.747Z,3.66
2022-12-27T03:50:50.336Z,3.66
2022-12-27T03:51:24.898Z,3.66
2022-12-27T03:52:19.714Z,3.67
2022-12-27T03:52:57.777Z,3.66
2022-12-27T03:53:43.142Z,3.67
2022-12-27T03:54:26.311Z,3.67
2022-12-27T03:54:58.800Z,3.66
2022-12-27T03:55:33.462Z,3.68
2022-12-27T03:56:07.196Z,3.66
2022-12-27T03:56:41.677Z,3.67
2022-12-27T03:57:15.757Z,3.68
2022-12-27T03:57:47.547Z,3.67
2022-12-27T03:58:19.085Z,3.67
2022-12-27T03:58:52.226Z,3.68
2022-12-27T03:59:23.791Z,3.67
2022-12-27T03:59:55.262Z,3.67
2022-12-27T04:00:26.628Z,3.70
2022-12-27T04:00:57.955Z,3.70
2022-12-27T04:01:29.440Z,3.69
2022-12-27T04:02:02.067Z,3.70
2022-12-27T04:02:33.731Z,3.70
2022-12-27T04:03:05.304Z,3.70
2022-12-27T04:03:36.711Z,3.71
2022-12-27T04:04:08.135Z,3.72
2022-12-27T04:04:39.894Z,3.70
2022-12-27T04:05:11.676Z,3.72
2022-12-27T04:05:43.043Z,3.72
2022-12-27T04:06:14.430Z,3.72
2022-12-27T04:06:45.854Z,3.68
2022-12-27T04:07:17.571Z,3.71
2022-12-27T04:08:07.294Z,3.73
2022-12-27T04:08:57.530Z,3.72
2022-12-27T04:09:47.490Z,3.71
2022-12-27T04:10:37.357Z,3.70
2022-12-27T04:11:27.176Z,3.68
2022-12-27T04:12:17.333Z,3.68
2022-12-27T04:13:07.279Z,3.67
2022-12-27T04:13:57.554Z,3.67
2022-12-27T04:14:47.288Z,3.66
2022-12-27T04:15:37.435Z,3.66
2022-12-27T04:16:27.701Z,3.67
2022-12-27T04:17:17.581Z,3.66
2022-12-27T04:19:15.393Z,3.66
2022-12-27T04:20:05.316Z,3.65
2022-12-27T04:20:55.708Z,3.65
2022-12-27T04:21:45.772Z,3.65
2022-12-27T04:22:35.870Z,3.65
2022-12-27T04:23:26.183Z,3.66
2022-12-27T04:24:16.033Z,3.65
2022-12-27T04:25:06.261Z,3.66
2022-12-27T04:25:56.620Z,3.66
2022-12-27T04:26:46.844Z,3.64
2022-12-27T04:27:36.743Z,3.65
2022-12-27T04:28:26.675Z,3.64
2022-12-27T04:29:16.470Z,3.66
2022-12-27T04:30:06.241Z,3.67
2022-12-27T04:30:55.871Z,3.66
2022-12-27T04:31:46.145Z,3.67
2022-12-27T04:32:35.985Z,3.68
2022-12-27T04:33:25.926Z,3.67
2022-12-27T04:34:15.969Z,3.67
2022-12-27T04:34:47.398Z,3.67
2022-12-27T04:35:18.886Z,3.64
2022-12-27T04:35:50.325Z,3.66
2022-12-27T04:36:21.701Z,3.66
2022-12-27T04:36:53.085Z,3.67
2022-12-27T04:37:24.490Z,3.67
2022-12-27T04:37:55.891Z,3.67
2022-12-27T04:38:27.255Z,3.66
2022-12-27T04:38:58.813Z,3.67
2022-12-27T04:39:30.268Z,3.67
2022-12-27T04:40:20.376Z,3.67
2022-12-27T04:41:10.423Z,3.67
2022-12-27T04:42:00.492Z,3.65
2022-12-27T04:42:50.246Z,3.66
2022-12-27T04:43:40.172Z,3.66
2022-12-27T04:44:30.088Z,3.66
2022-12-27T04:45:20.365Z,3.66
2022-12-27T04:46:10.438Z,3.65
2022-12-27T04:47:00.223Z,3.64
2022-12-27T04:47:50.484Z,3.64
2022-12-27T04:48:40.744Z,3.65
2022-12-27T04:49:38.396Z,3.65
2022-12-27T04:50:35.379Z,3.64
2022-12-27T04:51:27.493Z,3.63
2022-12-27T04:52:17.766Z,3.63
2022-12-27T04:53:07.868Z,3.62
2022-12-27T04:53:57.543Z,3.63
2022-12-27T04:54:47.401Z,3.62
2022-12-27T04:55:24.364Z,3.62
2022-12-27T04:55:56.218Z,3.59
2022-12-27T04:56:27.617Z,3.61
2022-12-27T04:56:58.996Z,3.61
2022-12-27T04:57:30.532Z,3.60
2022-12-27T04:58:01.944Z,3.59
2022-12-27T04:58:33.703Z,3.61
2022-12-27T04:59:23.869Z,3.61
2022-12-27T05:00:13.719Z,3.61
2022-12-27T05:01:06.651Z,3.61
2022-12-27T05:01:59.719Z,3.60
2022-12-27T05:02:31.412Z,3.60
2022-12-27T05:03:06.621Z,3.59
2022-12-27T05:03:38.860Z,3.60
2022-12-27T05:04:10.424Z,3.60
2022-12-27T05:04:42.462Z,3.60
2022-12-27T05:05:14.353Z,3.62
2022-12-27T05:05:46.836Z,3.60
2022-12-27T05:06:19.238Z,3.61
2022-12-27T05:06:50.671Z,3.61
2022-12-27T05:07:40.531Z,3.61
2022-12-27T05:08:31.669Z,3.63
2022-12-27T05:09:23.371Z,3.62
2022-12-27T05:10:13.956Z,3.62
2022-12-27T05:11:04.198Z,3.61
2022-12-27T05:11:53.917Z,3.61
2022-12-27T05:12:43.734Z,3.62
2022-12-27T05:13:33.557Z,3.62
2022-12-27T05:14:09.334Z,3.63
2022-12-27T05:14:40.762Z,3.62
2022-12-27T05:15:12.129Z,3.62
2022-12-27T05:15:43.532Z,3.64
2022-12-27T05:16:15.406Z,3.64
2022-12-27T05:16:46.833Z,3.62
2022-12-27T05:17:18.175Z,3.64
2022-12-27T05:17:49.992Z,3.63
2022-12-27T05:18:21.683Z,3.64
2022-12-27T05:18:53.722Z,3.63
2022-12-27T05:19:25.143Z,3.65
2022-12-27T05:19:56.580Z,3.64
2022-12-27T05:20:28.054Z,3.64
2022-12-27T05:21:05.703Z,3.64
2022-12-27T05:21:38.304Z,3.64
2022-12-27T05:22:28.325Z,3.64
2022-12-27T05:23:18.338Z,3.62
2022-12-27T05:24:08.329Z,3.63
2022-12-27T05:24:58.018Z,3.63
2022-12-27T05:25:35.138Z,3.61
2022-12-27T05:26:06.662Z,3.61
2022-12-27T05:26:38.908Z,3.60
2022-12-27T05:27:10.325Z,3.58
2022-12-27T05:27:41.721Z,3.58
2022-12-27T05:28:13.670Z,3.59
2022-12-27T05:28:45.182Z,3.57
2022-12-27T05:29:17.036Z,3.58
2022-12-27T05:29:48.539Z,3.56
2022-12-27T05:30:19.983Z,3.56
2022-12-27T05:30:51.374Z,3.58
2022-12-27T05:31:25.180Z,3.57
2022-12-27T05:31:56.722Z,3.59
2022-12-27T05:32:28.130Z,3.58
2022-12-27T05:32:59.472Z,3.57
2022-12-27T05:33:32.090Z,3.57
2022-12-27T05:34:05.237Z,3.59
2022-12-27T05:34:36.627Z,3.58
2022-12-27T05:35:08.239Z,3.57
2022-12-27T05:35:40.079Z,3.58
2022-12-27T05:36:11.713Z,3.56
2022-12-27T05:36:43.053Z,3.57
2022-12-27T05:37:14.474Z,3.57
2022-12-27T05:37:50.076Z,3.55
2022-12-27T05:38:24.585Z,3.55
2022-12-27T05:38:56.012Z,3.55
2022-12-27T05:39:27.338Z,3.54
2022-12-27T05:39:58.729Z,3.55
2022-12-27T05:40:30.115Z,3.55
2022-12-27T05:41:02.265Z,3.56
2022-12-27T05:41:33.797Z,3.57
2022-12-27T05:42:05.249Z,3.56
2022-12-27T05:42:36.721Z,3.56
2022-12-27T05:43:10.319Z,3.57
2022-12-27T05:43:41.889Z,3.58
2022-12-27T05:44:13.315Z,3.55
2022-12-27T05:44:44.643Z,3.57
2022-12-27T05:45:16.189Z,3.56
2022-12-27T05:45:47.557Z,3.53
2022-12-27T05:46:21.369Z,3.56
2022-12-27T05:46:54.367Z,3.56
2022-12-27T05:47:25.768Z,3.56
2022-12-27T05:47:58.740Z,3.57
2022-12-27T05:48:30.096Z,3.55
2022-12-27T05:49:01.502Z,3.56
2022-12-27T05:49:32.918Z,3.54
2022-12-27T05:50:04.676Z,3.57
2022-12-27T05:50:36.056Z,3.56
2022-12-27T05:51:19.198Z,3.57
2022-12-27T05:51:50.614Z,3.57
2022-12-27T05:52:22.011Z,3.56
2022-12-27T05:52:53.459Z,3.57
2022-12-27T05:53:24.880Z,3.57
2022-12-27T05:53:56.502Z,3.56
2022-12-27T05:54:27.839Z,3.57
2022-12-27T05:54:59.210Z,3.57
2022-12-27T05:55:30.626Z,3.53
2022-12-27T05:56:02.586Z,3.57
2022-12-27T05:56:37.161Z,3.57
2022-12-27T05:57:08.561Z,3.55
2022-12-27T05:57:40.168Z,3.56
2022-12-27T05:58:11.694Z,3.56
2022-12-27T05:58:43.651Z,3.58
2022-12-27T05:59:15.259Z,3.57
2022-12-27T05:59:46.665Z,3.56
2022-12-27T06:00:18.370Z,3.58
2022-12-27T06:00:49.845Z,3.57
2022-12-27T06:01:21.765Z,3.57
2022-12-27T06:01:53.314Z,3.56
2022-12-27T06:02:24.984Z,3.56
2022-12-27T06:02:56.463Z,3.57
2022-12-27T06:03:28.042Z,3.56
2022-12-27T06:04:00.153Z,3.58
2022-12-27T06:04:31.532Z,3.57
2022-12-27T06:05:02.969Z,3.58
2022-12-27T06:05:34.349Z,3.59
2022-12-27T06:06:08.088Z,3.58
2022-12-27T06:06:39.719Z,3.57
2022-12-27T06:07:11.704Z,3.57
2022-12-27T06:07:43.119Z,3.59
2022-12-27T06:08:14.635Z,3.57
2022-12-27T06:08:46.110Z,3.56
2022-12-27T06:09:17.706Z,3.53
2022-12-27T06:09:49.325Z,3.57
2022-12-27T06:10:39.426Z,3.58
2022-12-27T06:11:13.894Z,3.57
2022-12-27T06:11:45.441Z,3.57
2022-12-27T06:12:16.850Z,3.56
2022-12-27T06:12:48.261Z,3.57
2022-12-27T06:13:19.629Z,3.58
2022-12-27T06:13:53.409Z,3.57
2022-12-27T06:14:27.411Z,3.56
2022-12-27T06:14:58.837Z,3.53
2022-12-27T06:15:30.265Z,3.54
2022-12-27T06:16:03.440Z,3.55
2022-12-27T06:16:34.889Z,3.54
2022-12-27T06:17:06.222Z,3.57
2022-12-27T06:17:37.652Z,3.54
2022-12-27T06:18:08.993Z,3.56
2022-12-27T06:18:42.033Z,3.54
2022-12-27T06:19:13.584Z,3.57
2022-12-27T06:19:44.928Z,3.54
2022-12-27T06:20:16.619Z,3.55
2022-12-27T06:20:48.017Z,3.57
2022-12-27T06:21:21.452Z,3.56
2022-12-27T06:21:52.880Z,3.54
2022-12-27T06:22:24.539Z,3.56
2022-12-27T06:22:58.840Z,3.56
2022-12-27T06:23:30.229Z,3.55
2022-12-27T06:24:01.682Z,3.54
2022-12-27T06:24:33.053Z,3.52
2022-12-27T06:25:04.839Z,3.53
2022-12-27T06:25:38.263Z,3.53
2022-12-27T06:26:14.298Z,3.54
2022-12-27T06:26:45.829Z,3.53
2022-12-27T06:27:17.178Z,3.52
2022-12-27T06:27:48.635Z,3.54
2022-12-27T06:28:20.154Z,3.50
2022-12-27T06:28:52.403Z,3.54
2022-12-27T06:29:23.845Z,3.50
2022-12-27T06:29:55.366Z,3.50
2022-12-27T06:30:29.334Z,3.51
2022-12-27T06:31:04.610Z,3.48
2022-12-27T06:31:36.074Z,3.48
2022-12-27T06:32:07.597Z,3.51
2022-12-27T06:32:39.414Z,3.53
2022-12-27T06:33:10.797Z,3.53
2022-12-27T06:33:42.258Z,3.54
2022-12-27T06:34:13.671Z,3.50
2022-12-27T06:34:45.503Z,3.53
2022-12-27T06:35:17.046Z,3.52
2022-12-27T06:35:48.425Z,3.51
2022-12-27T06:36:22.894Z,3.54
2022-12-27T06:36:54.282Z,3.50
2022-12-27T06:37:25.811Z,3.47
2022-12-27T06:37:57.259Z,3.47
2022-12-27T06:38:28.715Z,3.50
2022-12-27T06:39:00.884Z,3.51
2022-12-27T06:39:32.232Z,3.50
2022-12-27T06:40:04.058Z,3.50
2022-12-27T06:40:35.614Z,3.51
2022-12-27T06:41:10.223Z,3.53
2022-12-27T06:41:41.841Z,3.53
2022-12-27T06:42:13.287Z,3.53
2022-12-27T06:42:44.655Z,3.49
2022-12-27T06:43:16.030Z,3.52
2022-12-27T06:43:47.867Z,3.54
2022-12-27T06:44:19.264Z,3.51
2022-12-27T06:44:50.637Z,3.52
2022-12-27T06:45:22.088Z,3.48
2022-12-27T06:46:00.956Z,3.50
2022-12-27T06:46:32.438Z,3.52
2022-12-27T06:47:03.762Z,3.51
2022-12-27T06:47:35.140Z,3.52
2022-12-27T06:48:06.655Z,3.52
2022-12-27T06:48:38.090Z,3.52
2022-12-27T06:49:10.609Z,3.50
2022-12-27T06:49:42.010Z,3.52
2022-12-27T06:50:13.641Z,3.51
2022-12-27T06:50:45.065Z,3.52
2022-12-27T06:51:18.937Z,3.51
2022-12-27T06:51:57.420Z,3.52
2022-12-27T06:52:30.787Z,3.47
2022-12-27T06:53:02.136Z,3.49
2022-12-27T06:53:33.826Z,3.49
2022-12-27T06:54:05.225Z,3.48
2022-12-27T06:54:36.665Z,3.50
2022-12-27T06:55:08.155Z,3.50
2022-12-27T06:55:39.540Z,3.48
2022-12-27T06:56:13.556Z,3.46
2022-12-27T06:56:44.899Z,3.48
2022-12-27T06:57:16.260Z,3.50
2022-12-27T06:57:47.614Z,3.48
2022-12-27T06:58:19.025Z,3.49
2022-12-27T06:58:51.587Z,3.50
2022-12-27T06:59:23.910Z,3.51
2022-12-27T06:59:55.283Z,3.47
2022-12-27T07:00:26.710Z,3.48
2022-12-27T07:00:58.196Z,3.47
2022-12-27T07:01:29.787Z,3.49
2022-12-27T07:02:01.506Z,3.50
2022-12-27T07:02:33.099Z,3.50
2022-12-27T07:03:04.771Z,3.52
2022-12-27T07:03:36.365Z,3.51
2022-12-27T07:04:09.340Z,3.52
2022-12-27T07:04:40.730Z,3.51
2022-12-27T07:05:12.191Z,3.52
2022-12-27T07:05:43.867Z,3.51
2022-12-27T07:06:15.239Z,3.49
2022-12-27T07:06:46.598Z,3.49
2022-12-27T07:07:18.024Z,3.50
2022-12-27T07:07:49.686Z,3.48
2022-12-27T07:08:21.064Z,3.52
2022-12-27T07:08:52.862Z,3.50
2022-12-27T07:09:24.225Z,3.47
2022-12-27T07:09:55.662Z,3.50
2022-12-27T07:10:27.067Z,3.49
2022-12-27T07:11:06.823Z,3.51
2022-12-27T07:11:38.515Z,3.51
2022-12-27T07:12:09.954Z,3.51
2022-12-27T07:12:41.319Z,3.48
2022-12-27T07:13:12.729Z,3.51
2022-12-27T07:13:47.018Z,3.47
2022-12-27T07:14:18.560Z,3.46
2022-12-27T07:14:49.940Z,3.48
2022-12-27T07:15:21.283Z,3.46
2022-12-27T07:15:52.667Z,3.46
2022-12-27T07:16:26.796Z,3.46
2022-12-27T07:16:58.257Z,3.47
2022-12-27T07:17:29.630Z,3.46
2022-12-27T07:18:01.094Z,3.48
2022-12-27T07:18:32.654Z,3.47
2022-12-27T07:19:04.309Z,3.45
2022-12-27T07:19:35.720Z,3.43
2022-12-27T07:20:07.830Z,3.48
2022-12-27T07:20:39.173Z,3.48
2022-12-27T07:22:08.844Z,3.45
2022-12-27T07:23:36.769Z,3.43
2022-12-27T07:24:55.382Z,3.46
2022-12-27T07:26:34.675Z,3.43
2022-12-27T07:30:01.825Z,3.46
2022-12-27T07:31:36.377Z,3.43
2022-12-27T07:33:07.189Z,3.38
2022-12-27T07:37:59.931Z,3.38
2022-12-27T07:39:08.781Z,3.38
2022-12-27T07:40:23.283Z,3.35
2022-12-27T07:42:50.964Z,3.38
2022-12-27T07:45:26.335Z,3.34
2022-12-27T07:47:08.388Z,3.35
2022-12-27T07:48:18.160Z,3.33
2022-12-27T07:49:18.057Z,3.31
2022-12-27T07:50:28.334Z,3.31
2022-12-27T07:51:16.929Z,3.33
2022-12-27T07:53:17.180Z,3.29
2022-12-27T07:54:16.146Z,3.31
2022-12-27T07:55:15.372Z,3.31
2022-12-27T07:58:42.958Z,3.28
2022-12-27T07:59:16.918Z,3.23
2022-12-27T08:00:08.482Z,3.29
2022-12-27T08:01:04.918Z,3.25
2022-12-27T08:02:30.019Z,3.24
2022-12-27T08:03:07.064Z,3.28
2022-12-27T08:04:50.191Z,3.24
2022-12-27T08:05:58.905Z,3.28
2022-12-27T08:38:55.887Z,3.27
2022-12-27T08:39:51.420Z,3.27
2022-12-27T08:40:54.270Z,3.28
2022-12-27T08:41:49.040Z,3.26
2022-12-27T08:42:40.488Z,3.27
2022-12-27T08:43:31.973Z,3.30
2022-12-27T08:44:24.264Z,3.28
2022-12-27T08:45:24.187Z,3.31
2022-12-27T08:46:04.715Z,3.28
2022-12-27T08:46:38.579Z,3.30
2022-12-27T08:47:10.385Z,3.30
2022-12-27T08:47:47.338Z,3.31
2022-12-27T08:48:26.028Z,3.32
2022-12-27T08:49:03.417Z,3.32
2022-12-27T08:49:37.432Z,3.33
2022-12-27T08:51:12.003Z,3.35
2022-12-27T08:51:47.155Z,3.34
2022-12-27T08:52:21.614Z,3.33
2022-12-27T08:52:53.077Z,3.32
2022-12-27T08:53:24.817Z,3.34
2022-12-27T08:53:58.882Z,3.36
2022-12-27T08:54:30.655Z,3.35
2022-12-27T08:55:05.585Z,3.38
2022-12-27T08:55:36.983Z,3.35
2022-12-27T08:56:08.450Z,3.37
2022-12-27T08:56:40.074Z,3.38
2022-12-27T08:57:11.672Z,3.34
2022-12-27T08:57:43.187Z,3.36
2022-12-27T08:58:16.602Z,3.36
2022-12-27T08:58:51.092Z,3.38
2022-12-27T08:59:22.707Z,3.37
2022-12-27T08:59:54.487Z,3.37
2022-12-27T09:00:27.616Z,3.39
2022-12-27T09:01:06.667Z,3.38
2022-12-27T09:02:45.874Z,3.43
2022-12-27T09:03:20.739Z,3.38
2022-12-27T09:03:52.218Z,3.41
2022-12-27T09:04:23.892Z,3.39
2022-12-27T09:04:55.351Z,3.44
2022-12-27T09:06:12.734Z,3.40
2022-12-27T09:07:02.452Z,3.42
2022-12-27T09:09:09.178Z,3.47
2022-12-27T09:09:40.582Z,3.47
2022-12-27T09:10:11.965Z,3.47
2022-12-27T09:10:43.477Z,3.48
2022-12-27T09:11:17.669Z,3.47
2022-12-27T09:11:49.320Z,3.48
2022-12-27T09:12:36.931Z,3.48
2022-12-27T09:13:09.956Z,3.45
2022-12-27T09:13:42.401Z,3.44
2022-12-27T09:14:16.429Z,3.48
2022-12-27T09:14:48.116Z,3.51
2022-12-27T09:15:20.042Z,3.51
2022-12-27T09:15:51.734Z,3.50
2022-12-27T09:16:27.878Z,3.51
2022-12-27T09:16:59.640Z,3.53
2022-12-27T09:17:31.475Z,3.54
2022-12-27T09:19:22.365Z,3.50
2022-12-27T09:19:59.055Z,3.53
2022-12-27T09:20:30.508Z,3.52
2022-12-27T09:21:19.063Z,3.54
2022-12-27T09:21:51.092Z,3.55
2022-12-27T09:22:22.591Z,3.54
2022-12-27T09:22:54.168Z,3.54
2022-12-27T09:23:26.085Z,3.53
2022-12-27T09:23:58.547Z,3.59
2022-12-27T09:24:30.287Z,3.58
2022-12-27T09:25:24.230Z,3.58
2022-12-27T09:25:56.115Z,3.59
2022-12-27T09:26:30.456Z,3.62